Ambler, Alaska
Current Conditions -  °F | °C
As of 2:56 PM on Wednesday 22 Oct 2014 (Local Time) from PAFM Reporting Station
Broken Clouds Broken Clouds  
Wind Chill: -3°   Ceiling: 8500
Heat Index: -3°   Visibility: 10mi
Dew Point: -9°   Wind: 0mph
Humidity: 64%   Direction: NA
Pressure: 29.8"   Gusts: NA
Location:  67.09°N, 157.85°W
Report Text: PAFM 222256Z AUTO 00000KT 10SM BKN085 M03/M09 A2980 RMK AO1
Loading
Personal Weather Stations






























Interactive Weather Map New forecast layout! Learn more

10-Day Weather Forecast

Advertisements
Track Severe Weather on mobile